Etusivu
METAR-TAF:

METAR-TAF

Lentoasemat :

Renton Municipal Airport

Renton, Washington, Yhdysvallat

Leveyspiiri: 47-29-40N, Pituuspiiri: 122-12-46W, korkeus merenpinnasta: 8 m

Tämänhetkinen sää

Tämä raportti tehtiin 58 minuuttia sitten, kello 09.53 UTC
tyyntä
Lämpötila 10°C
Kosteus 93%
Ilmanpaine 1015 hPa
Näkyvyys: 14.5 km
Hajanaisia pilviä 3900 ft:n korkeudessa
Pilvistä 8500 ft:n korkeudessa

METAR: KRNT 200953Z AUTO 00000KT 9SM SCT039 OVC085 10/09 A2998 RMK AO2 SLP157 T01000094

Aika: 03:51 (10:51 UTC)


TAF: puuttuu

Säähavainnot ja -ennusteet yli 4000 lentoasemalta (METAR- ja TAF-raportit).

Käytössä olevat sääasemat on merkitty karttaan keltaisilla ja punaisilla pisteillä.

Aseta hiiri pisteen päälle nähdäksesi sääaseman nimen.

Klikkaa sitten nähdäksesi säähavainnot ja -ennusteet.

Kartan vaihtaminen: klikkaa mustalla rastilla varustettuja vihreitä pisteitä, niin voit zoomata sisään; viivalla varustettua vihreää pistettä, niin voit zoomata ulos tai vihreitä nuolia, niin pääset viereisille kartoille.


METAR-TAF: